createdAt,value
2018-09-01T00:01:33.031Z,10.60
2018-09-01T00:04:02.318Z,10.60
2018-09-01T00:06:31.440Z,10.50
2018-09-01T00:09:00.801Z,10.50
2018-09-01T00:11:30.064Z,10.50
2018-09-01T00:13:59.202Z,10.50
2018-09-01T00:16:28.512Z,10.40
2018-09-01T00:18:57.631Z,10.40
2018-09-01T00:21:27.304Z,10.30
2018-09-01T00:23:56.501Z,10.30
2018-09-01T00:26:26.255Z,10.30
2018-09-01T00:28:55.284Z,10.30
2018-09-01T00:31:24.384Z,10.30
2018-09-01T00:33:53.553Z,10.20
2018-09-01T00:36:22.629Z,10.20
2018-09-01T00:38:56.984Z,10.10
2018-09-01T00:41:26.516Z,10.10
2018-09-01T00:43:56.099Z,10.10
2018-09-01T00:46:26.693Z,10.10
2018-09-01T00:48:55.762Z,10.10
2018-09-01T00:51:25.145Z,10.10
2018-09-01T00:53:54.300Z,10.10
2018-09-01T00:56:23.812Z,10.00
2018-09-01T00:58:52.203Z,10.00
2018-09-01T01:01:20.959Z,10.00
2018-09-01T01:03:49.240Z,10.00
2018-09-01T01:06:17.995Z,10.00
2018-09-01T01:08:46.636Z,10.00
2018-09-01T01:11:17.662Z,10.00
2018-09-01T01:13:47.395Z,9.90
2018-09-01T01:16:16.523Z,9.80
2018-09-01T01:18:45.210Z,9.90
2018-09-01T01:21:14.065Z,9.90
2018-09-01T01:23:42.939Z,9.90
2018-09-01T01:26:11.576Z,9.90
2018-09-01T01:28:39.858Z,9.90
2018-09-01T01:31:15.828Z,9.90
2018-09-01T01:33:44.165Z,9.90
2018-09-01T01:36:12.444Z,9.90
2018-09-01T01:38:40.680Z,9.90
2018-09-01T01:41:08.972Z,9.90
2018-09-01T01:43:37.805Z,9.90
2018-09-01T01:46:06.482Z,9.80
2018-09-01T01:48:35.973Z,9.80
2018-09-01T01:51:05.248Z,9.80
2018-09-01T01:53:33.901Z,9.80
2018-09-01T01:56:02.321Z,9.80
2018-09-01T01:58:30.591Z,9.80
2018-09-01T02:00:59.199Z,9.70
2018-09-01T02:03:27.452Z,9.70
2018-09-01T02:05:55.631Z,9.70
2018-09-01T02:08:23.839Z,9.80
2018-09-01T02:10:52.469Z,10.30
2018-09-01T02:13:21.615Z,9.70
2018-09-01T02:15:50.214Z,9.70
2018-09-01T02:18:18.813Z,9.70
2018-09-01T02:20:47.091Z,9.70
2018-09-01T02:23:15.297Z,9.70
2018-09-01T02:25:43.656Z,9.70
2018-09-01T02:28:11.904Z,9.60
2018-09-01T02:30:40.166Z,9.60
2018-09-01T02:33:08.952Z,9.50
2018-09-01T02:35:37.239Z,9.50
2018-09-01T02:38:05.645Z,9.50
2018-09-01T02:40:33.945Z,9.50
2018-09-01T02:43:02.566Z,9.50
2018-09-01T02:45:30.820Z,9.50
2018-09-01T02:47:59.018Z,9.40
2018-09-01T02:50:27.418Z,9.40
2018-09-01T02:52:56.055Z,9.40
2018-09-01T02:55:24.998Z,9.40
2018-09-01T02:57:53.863Z,9.40
2018-09-01T03:00:27.787Z,9.40
2018-09-01T03:02:56.150Z,9.30
2018-09-01T03:05:24.432Z,9.30
2018-09-01T03:07:52.631Z,9.30
2018-09-01T03:10:20.891Z,9.30
2018-09-01T03:12:50.120Z,9.30
2018-09-01T03:15:18.847Z,9.30
2018-09-01T03:17:47.647Z,9.30
2018-09-01T03:20:16.059Z,9.30
2018-09-01T03:22:45.255Z,9.30
2018-09-01T03:25:14.365Z,9.20
2018-09-01T03:27:46.852Z,9.20
2018-09-01T03:30:14.984Z,9.20
2018-09-01T03:32:43.265Z,9.10
2018-09-01T03:35:12.347Z,9.10
2018-09-01T03:37:41.095Z,9.10
2018-09-01T03:40:09.979Z,9.10
2018-09-01T03:42:38.562Z,9.10
2018-09-01T03:45:07.012Z,9.10
2018-09-01T03:47:35.932Z,9.10
2018-09-01T03:50:04.259Z,9.00
2018-09-01T03:52:32.540Z,9.00
2018-09-01T03:55:00.872Z,9.00
2018-09-01T03:57:29.616Z,9.00
2018-09-01T03:59:58.169Z,9.00
2018-09-01T04:02:27.597Z,9.00
2018-09-01T04:04:56.528Z,9.00
2018-09-01T04:07:25.964Z,9.00
2018-09-01T04:09:55.466Z,8.90
2018-09-01T04:12:24.096Z,8.90
2018-09-01T04:14:53.399Z,8.90
2018-09-01T04:17:22.305Z,8.90
2018-09-01T04:19:50.751Z,8.90
2018-09-01T04:22:19.697Z,8.80
2018-09-01T04:24:47.866Z,8.80
2018-09-01T04:27:16.271Z,8.80
2018-09-01T04:29:44.444Z,8.80
2018-09-01T04:32:12.664Z,8.70
2018-09-01T04:34:40.992Z,8.70
2018-09-01T04:37:09.419Z,8.70
2018-09-01T04:39:38.331Z,8.70
2018-09-01T04:42:06.379Z,8.70
2018-09-01T04:44:34.817Z,8.70
2018-09-01T04:47:03.119Z,8.60
2018-09-01T04:49:31.368Z,8.70
2018-09-01T04:51:59.643Z,8.60
2018-09-01T04:54:28.071Z,8.60
2018-09-01T04:56:56.687Z,8.70
2018-09-01T04:59:25.684Z,8.70
2018-09-01T05:01:54.033Z,8.70
2018-09-01T05:04:22.566Z,8.70
2018-09-01T05:06:50.775Z,8.70
2018-09-01T05:09:18.962Z,8.80
2018-09-01T05:11:47.197Z,8.80
2018-09-01T05:14:15.668Z,8.80
2018-09-01T05:16:44.251Z,8.80
2018-09-01T05:19:13.150Z,8.90
2018-09-01T05:21:41.745Z,8.90
2018-09-01T05:24:10.575Z,9.00
2018-09-01T05:26:39.132Z,9.00
2018-09-01T05:29:07.390Z,9.10
2018-09-01T05:31:35.642Z,9.10
2018-09-01T05:34:03.872Z,9.20
2018-09-01T05:36:32.537Z,9.20
2018-09-01T05:39:00.956Z,9.20
2018-09-01T05:41:29.549Z,9.30
2018-09-01T05:43:58.245Z,9.40
2018-09-01T05:46:27.260Z,9.40
2018-09-01T05:48:55.468Z,9.50
2018-09-01T05:51:23.754Z,9.70
2018-09-01T05:53:52.186Z,10.80
2018-09-01T05:56:20.388Z,12.20
2018-09-01T05:58:48.899Z,13.40
2018-09-01T06:01:17.759Z,14.70
2018-09-01T06:03:46.342Z,15.70
2018-09-01T06:06:15.335Z,16.70
2018-09-01T06:08:44.340Z,17.90
2018-09-01T06:11:12.566Z,18.70
2018-09-01T06:13:40.868Z,19.40
2018-09-01T06:16:10.475Z,19.60
2018-09-01T06:18:39.496Z,20.00
2018-09-01T06:21:08.601Z,19.50
2018-09-01T06:23:37.688Z,20.20
2018-09-01T06:26:06.069Z,21.10
2018-09-01T06:28:37.899Z,22.20
2018-09-01T06:31:06.201Z,22.80
2018-09-01T06:33:34.479Z,24.20
2018-09-01T06:36:03.007Z,24.90
2018-09-01T06:38:31.801Z,25.90
2018-09-01T06:41:00.679Z,26.30
2018-09-01T06:43:30.346Z,27.10
2018-09-01T06:45:59.812Z,27.50
2018-09-01T06:48:29.342Z,28.10
2018-09-01T06:50:58.677Z,28.30
2018-09-01T06:53:28.508Z,28.40
2018-09-01T06:55:57.901Z,29.30
2018-09-01T06:58:27.947Z,30.10
2018-09-01T07:00:57.448Z,30.40
2018-09-01T07:03:26.717Z,30.80
2018-09-01T07:05:56.185Z,30.90
2018-09-01T07:08:25.624Z,31.20
2018-09-01T07:10:54.969Z,31.40
2018-09-01T07:13:24.339Z,31.10
2018-09-01T07:15:53.904Z,31.50
2018-09-01T07:18:23.435Z,31.20
2018-09-01T07:20:52.877Z,31.20
2018-09-01T07:23:22.604Z,31.80
2018-09-01T07:25:52.556Z,32.10
2018-09-01T07:28:21.747Z,32.50
2018-09-01T07:30:51.371Z,32.40
2018-09-01T07:33:20.448Z,32.80
2018-09-01T07:35:49.654Z,32.70
2018-09-01T07:38:18.856Z,33.10
2018-09-01T07:40:48.117Z,33.30
2018-09-01T07:43:17.238Z,32.90
2018-09-01T07:45:47.739Z,33.10
2018-09-01T07:48:17.018Z,32.90
2018-09-01T07:50:46.478Z,32.90
2018-09-01T07:53:15.760Z,33.20
2018-09-01T07:55:47.401Z,34.00
2018-09-01T07:58:17.329Z,34.30
2018-09-01T08:00:47.437Z,34.10
2018-09-01T08:03:16.885Z,33.80
2018-09-01T08:05:46.681Z,33.40
2018-09-01T08:08:16.284Z,32.60
2018-09-01T08:10:45.935Z,32.40
2018-09-01T08:13:15.845Z,32.90
2018-09-01T08:15:45.779Z,32.80
2018-09-01T08:18:14.996Z,33.20
2018-09-01T08:20:44.853Z,33.00
2018-09-01T08:23:14.222Z,32.30
2018-09-01T08:25:43.791Z,32.20
2018-09-01T08:28:13.293Z,32.20
2018-09-01T08:30:42.465Z,31.40
2018-09-01T08:33:12.215Z,30.80
2018-09-01T08:35:41.403Z,30.80
2018-09-01T08:51:10.165Z,30.60
2018-09-01T08:53:39.976Z,30.10
2018-09-01T08:56:09.785Z,29.00
2018-09-01T08:58:39.391Z,29.20
2018-09-01T09:01:08.708Z,29.70
2018-09-01T09:03:38.132Z,29.20
2018-09-01T09:06:07.704Z,29.80
2018-09-01T09:08:37.007Z,29.20
2018-09-01T09:11:07.604Z,29.80
2018-09-01T09:13:37.527Z,29.40
2018-09-01T09:16:06.746Z,28.80
2018-09-01T09:18:35.876Z,27.30
2018-09-01T09:21:05.068Z,25.70
2018-09-01T09:23:34.133Z,25.30
2018-09-01T09:26:03.253Z,26.00
2018-09-01T09:28:32.309Z,26.60
2018-09-01T09:31:01.757Z,25.50
2018-09-01T09:33:30.919Z,23.70
2018-09-01T09:36:00.290Z,23.20
2018-09-01T09:38:29.464Z,24.20
2018-09-01T09:40:58.547Z,25.40
2018-09-01T09:43:27.753Z,24.90
2018-09-01T09:45:57.030Z,24.00
2018-09-01T09:48:26.244Z,23.40
2018-09-01T09:50:55.604Z,23.00
2018-09-01T09:53:25.079Z,22.30
2018-09-01T09:55:54.452Z,21.90
2018-09-01T09:58:23.837Z,21.50
2018-09-01T10:00:57.669Z,21.50
2018-09-01T10:03:27.581Z,21.30
2018-09-01T10:05:58.104Z,21.30
2018-09-01T10:08:27.334Z,21.30
2018-09-01T10:10:57.598Z,21.40
2018-09-01T10:13:26.952Z,21.70
2018-09-01T10:15:56.200Z,22.40
2018-09-01T10:18:25.292Z,23.20
2018-09-01T10:20:54.600Z,24.90
2018-09-01T10:23:23.756Z,25.50
2018-09-01T10:25:53.726Z,25.10
2018-09-01T10:28:22.861Z,24.40
2018-09-01T10:30:52.016Z,25.00
2018-09-01T10:33:21.456Z,24.50
2018-09-01T10:35:51.197Z,23.40
2018-09-01T10:38:20.435Z,22.80
2018-09-01T10:40:49.761Z,23.50
2018-09-01T10:43:19.249Z,24.30
2018-09-01T10:45:49.044Z,25.00
2018-09-01T10:48:18.304Z,25.50
2018-09-01T10:50:47.548Z,26.10
2018-09-01T10:53:16.842Z,26.80
2018-09-01T10:55:46.448Z,27.30
2018-09-01T10:58:15.735Z,26.20
2018-09-01T11:00:45.328Z,25.30
2018-09-01T11:03:14.499Z,24.10
2018-09-01T11:05:43.998Z,23.20
2018-09-01T11:08:13.833Z,22.60
2018-09-01T11:10:42.961Z,22.20
2018-09-01T11:13:12.114Z,23.20
2018-09-01T11:15:41.509Z,24.80
2018-09-01T11:18:11.627Z,25.80
2018-09-01T11:20:41.067Z,26.00
2018-09-01T11:23:10.170Z,24.70
2018-09-01T11:25:39.415Z,23.20
2018-09-01T11:28:08.859Z,22.50
2018-09-01T11:30:37.979Z,21.80
2018-09-01T11:33:07.616Z,21.40
2018-09-01T11:35:37.640Z,21.40
2018-09-01T11:38:06.702Z,22.20
2018-09-01T11:40:35.934Z,22.60
2018-09-01T11:43:05.670Z,23.50
2018-09-01T11:45:34.779Z,24.20
2018-09-01T11:48:04.610Z,24.30
2018-09-01T11:50:33.944Z,24.00
2018-09-01T11:53:03.679Z,24.50
2018-09-01T11:55:33.355Z,24.70
2018-09-01T11:58:03.072Z,24.70
2018-09-01T12:00:33.839Z,24.80
2018-09-01T12:03:03.654Z,24.40
2018-09-01T12:05:33.133Z,24.40
2018-09-01T12:08:02.804Z,24.50
2018-09-01T12:10:32.180Z,24.60
2018-09-01T12:13:01.396Z,25.10
2018-09-01T12:15:30.567Z,25.00
2018-09-01T12:17:59.945Z,25.00
2018-09-01T12:20:29.483Z,24.80
2018-09-01T12:22:59.023Z,24.10
2018-09-01T12:25:28.316Z,23.70
2018-09-01T12:27:58.709Z,23.20
2018-09-01T12:30:27.819Z,23.00
2018-09-01T12:32:56.894Z,22.60
2018-09-01T12:35:26.208Z,22.50
2018-09-01T12:37:55.231Z,22.50
2018-09-01T12:40:24.342Z,22.20
2018-09-01T12:42:53.486Z,22.30
2018-09-01T12:45:22.921Z,22.70
2018-09-01T12:47:52.084Z,22.70
2018-09-01T12:50:21.615Z,23.10
2018-09-01T12:52:50.708Z,23.30
2018-09-01T12:55:19.808Z,23.50
2018-09-01T12:57:49.132Z,23.70
2018-09-01T13:00:18.280Z,23.60
2018-09-01T13:02:47.547Z,23.10
2018-09-01T13:05:16.671Z,22.50
2018-09-01T13:07:45.999Z,22.00
2018-09-01T13:10:15.127Z,21.90
2018-09-01T13:12:44.327Z,22.30
2018-09-01T13:15:13.597Z,22.70
2018-09-01T13:17:42.672Z,23.20
2018-09-01T13:20:11.761Z,23.60
2018-09-01T13:22:40.872Z,24.00
2018-09-01T13:25:10.052Z,24.40
2018-09-01T13:27:39.134Z,24.00
2018-09-01T13:30:08.559Z,23.40
2018-09-01T13:32:37.835Z,23.00
2018-09-01T13:35:06.960Z,22.50
2018-09-01T13:37:36.313Z,22.10
2018-09-01T13:40:06.004Z,21.60
2018-09-01T13:42:35.240Z,21.70
2018-09-01T13:45:04.618Z,21.90
2018-09-01T13:47:33.737Z,22.20
2018-09-01T13:50:03.131Z,22.30
2018-09-01T13:52:32.541Z,22.30
2018-09-01T13:55:01.738Z,22.40
2018-09-01T13:57:31.133Z,22.50
2018-09-01T14:00:00.438Z,22.50
2018-09-01T14:02:29.739Z,22.50
2018-09-01T14:04:58.856Z,22.40
2018-09-01T14:07:28.168Z,22.50
2018-09-01T14:09:57.438Z,22.70
2018-09-01T14:12:26.672Z,22.80
2018-09-01T14:14:55.957Z,22.80
2018-09-01T14:17:25.552Z,22.80
2018-09-01T14:19:54.752Z,23.10
2018-09-01T14:22:23.964Z,23.20
2018-09-01T14:24:53.141Z,23.30
2018-09-01T14:27:22.809Z,22.90
2018-09-01T14:29:51.888Z,22.70
2018-09-01T14:32:21.094Z,22.30
2018-09-01T14:34:50.277Z,22.20
2018-09-01T14:37:20.050Z,22.00
2018-09-01T14:39:49.270Z,21.90
2018-09-01T14:42:18.466Z,21.70
2018-09-01T14:44:47.677Z,21.60
2018-09-01T14:47:16.929Z,21.40
2018-09-01T14:49:46.481Z,21.30
2018-09-01T14:52:17.039Z,21.20
2018-09-01T14:54:46.167Z,21.20
2018-09-01T14:57:15.336Z,21.20
2018-09-01T14:59:44.633Z,21.00
2018-09-01T15:02:13.948Z,20.70
2018-09-01T15:04:43.063Z,20.50
2018-09-01T15:07:12.417Z,20.40
2018-09-01T15:09:41.561Z,20.20
2018-09-01T15:12:10.860Z,20.10
2018-09-01T15:14:40.280Z,20.10
2018-09-01T15:17:09.328Z,20.10
2018-09-01T15:19:38.375Z,20.10
2018-09-01T15:22:07.876Z,20.10
2018-09-01T15:24:37.058Z,20.20
2018-09-01T15:27:06.153Z,20.20
2018-09-01T15:29:35.196Z,20.30
2018-09-01T15:32:04.310Z,20.40
2018-09-01T15:34:33.608Z,20.50
2018-09-01T15:37:02.740Z,20.60
2018-09-01T15:39:31.772Z,20.80
2018-09-01T15:42:00.857Z,21.00
2018-09-01T15:44:30.059Z,21.20
2018-09-01T15:46:59.593Z,21.20
2018-09-01T15:49:28.680Z,21.30
2018-09-01T15:51:57.755Z,21.40
2018-09-01T15:54:27.199Z,21.50
2018-09-01T15:56:57.203Z,21.60
2018-09-01T15:59:26.364Z,21.70
2018-09-01T16:01:55.421Z,21.80
2018-09-01T16:04:24.600Z,21.80
2018-09-01T16:06:53.819Z,21.70
2018-09-01T16:09:23.354Z,21.70
2018-09-01T16:11:52.507Z,21.60
2018-09-01T16:14:21.605Z,21.50
2018-09-01T16:16:50.800Z,21.20
2018-09-01T16:19:19.963Z,20.90
2018-09-01T16:21:49.352Z,20.50
2018-09-01T16:24:18.699Z,20.20
2018-09-01T16:26:47.948Z,19.90
2018-09-01T16:29:17.143Z,19.70
2018-09-01T16:31:46.515Z,19.60
2018-09-01T16:34:15.743Z,19.60
2018-09-01T16:36:45.728Z,19.60
2018-09-01T16:39:15.027Z,19.60
2018-09-01T16:41:44.249Z,19.60
2018-09-01T16:44:13.532Z,19.60
2018-09-01T16:46:42.598Z,19.60
2018-09-01T16:49:11.756Z,19.60
2018-09-01T16:51:41.206Z,19.60
2018-09-01T16:54:10.532Z,19.60
2018-09-01T16:56:44.198Z,19.60
2018-09-01T16:59:14.399Z,19.60
2018-09-01T17:01:44.168Z,19.60
2018-09-01T17:04:13.609Z,19.50
2018-09-01T17:06:42.931Z,19.40
2018-09-01T17:09:12.348Z,19.30
2018-09-01T17:11:41.848Z,19.30
2018-09-01T17:14:11.426Z,19.20
2018-09-01T17:16:40.651Z,19.20
2018-09-01T17:19:10.137Z,19.30
2018-09-01T17:21:39.391Z,19.00
2018-09-01T17:24:08.958Z,18.90
2018-09-01T17:26:38.759Z,18.90
2018-09-01T17:29:07.967Z,18.70
2018-09-01T17:31:37.027Z,18.70
2018-09-01T17:34:06.059Z,18.60
2018-09-01T17:36:35.340Z,18.60
2018-09-01T17:39:06.493Z,18.60
2018-09-01T17:41:35.589Z,18.60
2018-09-01T17:44:05.067Z,18.50
2018-09-01T17:46:34.237Z,18.60
2018-09-01T17:49:03.508Z,18.60
2018-09-01T17:51:32.684Z,18.70
2018-09-01T17:54:02.187Z,18.60
2018-09-01T17:56:31.562Z,18.50
2018-09-01T17:59:00.622Z,18.40
2018-09-01T18:01:30.773Z,18.20
2018-09-01T18:04:00.060Z,18.10
2018-09-01T18:06:29.174Z,18.10
2018-09-01T18:08:58.273Z,17.90
2018-09-01T18:11:27.444Z,17.80
2018-09-01T18:13:56.584Z,17.70
2018-09-01T18:16:25.829Z,17.60
2018-09-01T18:18:55.014Z,17.50
2018-09-01T18:21:24.440Z,17.40
2018-09-01T18:23:53.560Z,17.30
2018-09-01T18:26:22.687Z,17.20
2018-09-01T18:28:52.036Z,17.10
2018-09-01T18:31:21.092Z,17.00
2018-09-01T18:33:50.207Z,16.90
2018-09-01T18:36:19.736Z,16.80
2018-09-01T18:38:48.833Z,16.60
2018-09-01T18:41:17.934Z,16.50
2018-09-01T18:43:48.916Z,16.40
2018-09-01T18:46:18.537Z,16.30
2018-09-01T18:48:48.164Z,16.20
2018-09-01T18:51:18.199Z,16.10
2018-09-01T18:53:47.990Z,16.00
2018-09-01T18:56:18.504Z,16.00
2018-09-01T18:58:48.712Z,15.90
2018-09-01T19:01:18.346Z,15.80
2018-09-01T19:03:47.785Z,15.70
2018-09-01T19:06:17.288Z,15.60
2018-09-01T19:08:46.757Z,15.50
2018-09-01T19:11:16.125Z,15.40
2018-09-01T19:13:45.643Z,15.30
2018-09-01T19:16:15.331Z,15.10
2018-09-01T19:18:44.818Z,15.10
2018-09-01T19:21:14.199Z,15.00
2018-09-01T19:23:44.489Z,14.90
2018-09-01T19:26:14.197Z,14.90
2018-09-01T19:28:43.635Z,14.80
2018-09-01T19:31:13.153Z,14.70
2018-09-01T19:33:41.733Z,14.70
2018-09-01T19:36:10.711Z,14.60
2018-09-01T19:38:38.888Z,14.50
2018-09-01T19:41:08.445Z,14.50
2018-09-01T19:43:37.017Z,14.50
2018-09-01T19:46:05.342Z,14.50
2018-09-01T19:48:34.661Z,14.50
2018-09-01T19:51:03.189Z,14.50
2018-09-01T19:53:32.223Z,14.50
2018-09-01T19:56:00.874Z,14.50
2018-09-01T19:58:31.287Z,14.50
2018-09-01T20:00:59.841Z,14.50
2018-09-01T20:03:29.374Z,14.40
2018-09-01T20:05:58.814Z,14.40
2018-09-01T20:08:28.041Z,14.40
2018-09-01T20:10:57.202Z,14.30
2018-09-01T20:13:26.954Z,14.30
2018-09-01T20:15:56.143Z,14.20
2018-09-01T20:18:24.798Z,14.10
2018-09-01T20:20:53.541Z,14.10
2018-09-01T20:23:23.525Z,14.00
2018-09-01T20:25:53.038Z,13.90
2018-09-01T20:28:21.499Z,13.80
2018-09-01T20:30:50.337Z,13.80
2018-09-01T20:33:18.834Z,13.70
2018-09-01T20:35:52.409Z,13.70
2018-09-01T20:38:21.985Z,13.60
2018-09-01T20:40:51.232Z,13.50
2018-09-01T20:43:20.771Z,13.50
2018-09-01T20:45:50.196Z,13.40
2018-09-01T20:48:19.823Z,13.40
2018-09-01T20:50:49.004Z,13.30
2018-09-01T20:53:18.456Z,13.20
2018-09-01T20:55:47.914Z,13.20
2018-09-01T20:58:17.604Z,13.20
2018-09-01T21:00:47.143Z,13.10
2018-09-01T21:03:16.816Z,13.10
2018-09-01T21:05:46.435Z,13.00
2018-09-01T21:08:15.828Z,13.00
2018-09-01T21:10:45.239Z,13.00
2018-09-01T21:13:14.775Z,13.00
2018-09-01T21:15:44.168Z,12.90
2018-09-01T21:18:13.590Z,12.90
2018-09-01T21:20:42.835Z,12.80
2018-09-01T21:23:12.192Z,12.80
2018-09-01T21:25:41.491Z,12.70
2018-09-01T21:28:11.104Z,12.70
2018-09-01T21:30:40.496Z,12.70
2018-09-01T21:33:09.700Z,12.60
2018-09-01T21:35:38.805Z,12.60
2018-09-01T21:38:08.317Z,12.50
2018-09-01T21:40:37.575Z,12.50
2018-09-01T21:43:06.768Z,12.50
2018-09-01T21:45:35.892Z,12.50
2018-09-01T21:48:04.301Z,12.50
2018-09-01T21:50:32.745Z,12.40
2018-09-01T21:53:01.248Z,12.40
2018-09-01T21:55:29.854Z,12.40
2018-09-01T21:57:58.120Z,12.30
2018-09-01T22:00:26.476Z,12.30
2018-09-01T22:02:54.688Z,12.30
2018-09-01T22:05:23.066Z,12.20
2018-09-01T22:07:51.535Z,12.20
2018-09-01T22:10:19.856Z,12.10
2018-09-01T22:12:49.302Z,12.10
2018-09-01T22:15:18.480Z,12.10
2018-09-01T22:17:47.888Z,12.00
2018-09-01T22:20:16.753Z,12.00
2018-09-01T22:22:45.300Z,11.90
2018-09-01T22:25:14.856Z,11.90
2018-09-01T22:27:44.293Z,11.90
2018-09-01T22:30:14.016Z,11.80
2018-09-01T22:32:43.731Z,11.80
2018-09-01T22:35:13.333Z,11.80
2018-09-01T22:37:42.606Z,11.80
2018-09-01T22:40:11.905Z,11.70
2018-09-01T22:42:41.456Z,11.60
2018-09-01T22:45:10.846Z,11.60
2018-09-01T22:47:40.675Z,11.60
2018-09-01T22:50:10.179Z,11.60
2018-09-01T22:52:39.465Z,11.60
2018-09-01T22:55:08.611Z,11.60
2018-09-01T22:57:37.921Z,11.60
2018-09-01T23:00:07.892Z,11.50
2018-09-01T23:02:36.964Z,11.50
2018-09-01T23:05:06.111Z,11.50
2018-09-01T23:07:35.224Z,11.50
2018-09-01T23:10:04.403Z,11.40
2018-09-01T23:12:33.661Z,11.40
2018-09-01T23:15:02.800Z,11.40
2018-09-01T23:17:32.748Z,11.30
2018-09-01T23:20:02.193Z,11.30
2018-09-01T23:22:31.271Z,11.30
2018-09-01T23:25:00.362Z,11.30
2018-09-01T23:27:29.473Z,11.20
2018-09-01T23:29:59.375Z,11.20
2018-09-01T23:32:28.544Z,11.10
2018-09-01T23:34:57.668Z,11.10
2018-09-01T23:37:26.858Z,11.10
2018-09-01T23:39:55.982Z,11.00
2018-09-01T23:42:25.032Z,11.00
2018-09-01T23:44:54.281Z,10.90
2018-09-01T23:47:23.771Z,10.90
2018-09-01T23:49:52.952Z,10.80
2018-09-01T23:52:22.088Z,10.80
2018-09-01T23:54:51.428Z,10.80
2018-09-01T23:57:20.460Z,10.80
2018-09-01T23:59:49.828Z,10.80
